Time;durP1;ratioP1;P1;durP2;ratioP2;P2;SDS_P1;SDS_P2;PMS_P1;PMS_P2;Temp;Humidity;BMP_temperature;BMP_pressure;BME280_temperature;BME280_humidity;BME280_pressure;Samples;Min_cycle;Max_cycle;Signal;HPM_P1;HPM_P2
2021/04/30 00:01:17;;;;;;;23.33;17.70;;;;;;;14.11;94.74;94892.94;5089252;28;20441;-74
2021/04/30 00:03:45;;;;;;;26.45;17.38;;;;;;;14.08;95.08;94893.44;5087617;28;20044;-75
2021/04/30 00:06:11;;;;;;;27.85;17.67;;;;;;;14.10;94.80;94894.00;5089152;28;20059;-75
2021/04/30 00:08:39;;;;;;;23.98;17.60;;;;;;;14.15;94.61;94901.88;5088816;28;20036;-75
2021/04/30 00:11:07;;;;;;;22.85;17.20;;;;;;;14.19;94.69;94896.91;5089292;28;20441;-75
2021/04/30 00:13:35;;;;;;;24.38;18.98;;;;;;;14.21;94.58;94900.09;5089139;28;20119;-76
2021/04/30 00:16:02;;;;;;;27.17;19.00;;;;;;;14.23;94.22;94904.03;5088952;28;20482;-75
2021/04/30 00:18:29;;;;;;;22.60;19.63;;;;;;;14.25;94.57;94901.94;5087392;28;20036;-76
2021/04/30 00:20:57;;;;;;;28.20;18.33;;;;;;;14.21;94.61;94900.88;5088712;28;20159;-74
2021/04/30 00:23:27;;;;;;;20.25;17.13;;;;;;;14.22;94.58;94912.94;5088690;28;20040;-75
2021/04/30 00:25:54;;;;;;;23.20;17.83;;;;;;;14.11;94.77;94911.28;5087838;28;20040;-75
2021/04/30 00:28:22;;;;;;;31.75;18.50;;;;;;;13.99;95.27;94898.38;5088856;28;20085;-75
2021/04/30 00:30:49;;;;;;;25.63;18.20;;;;;;;14.09;95.61;94913.38;5088709;28;20043;-75
2021/04/30 00:33:16;;;;;;;24.27;18.15;;;;;;;14.12;95.34;94912.88;5088639;28;20048;-75
2021/04/30 00:35:43;;;;;;;25.48;17.05;;;;;;;14.08;94.77;94906.53;5088379;28;20102;-74
2021/04/30 00:38:10;;;;;;;24.92;17.52;;;;;;;14.12;95.34;94923.34;5088351;28;20039;-75
2021/04/30 00:40:37;;;;;;;21.98;16.75;;;;;;;14.03;95.83;94917.78;5087451;28;20044;-75
2021/04/30 00:43:04;;;;;;;24.77;17.92;;;;;;;14.07;95.40;94920.69;5087354;28;20122;-75
2021/04/30 00:45:31;;;;;;;28.13;18.42;;;;;;;14.06;95.46;94929.56;5088314;28;20043;-75
2021/04/30 00:47:57;;;;;;;22.23;16.88;;;;;;;13.99;95.54;94923.75;5087609;28;20517;-75
2021/04/30 00:50:26;;;;;;;20.30;15.43;;;;;;;14.11;95.04;94929.63;5088545;28;20040;-75
2021/04/30 00:52:53;;;;;;;26.38;16.92;;;;;;;14.14;94.98;94926.50;5088382;28;20519;-75
2021/04/30 00:55:21;;;;;;;21.35;16.63;;;;;;;14.15;94.86;94925.44;5088249;28;20067;-76
2021/04/30 00:57:53;;;;;;;21.52;15.50;;;;;;;14.34;93.65;94926.63;5087051;28;20043;-76
2021/04/30 01:00:20;;;;;;;19.05;15.90;;;;;;;14.44;92.69;94930.38;5087357;28;20036;-75
2021/04/30 01:02:47;;;;;;;18.73;14.82;;;;;;;14.56;92.25;94933.59;5087509;28;20048;-75
2021/04/30 01:05:14;;;;;;;28.13;15.38;;;;;;;14.52;91.71;94928.06;5085696;28;20040;-75
2021/04/30 01:07:40;;;;;;;24.77;15.45;;;;;;;14.52;91.67;94922.03;5088035;28;20101;-75
2021/04/30 01:10:07;;;;;;;21.42;15.27;;;;;;;14.58;91.53;94936.78;5089318;28;20505;-75
2021/04/30 01:12:34;;;;;;;31.42;15.48;;;;;;;14.50;91.69;94939.84;5086619;28;20040;-76
2021/04/30 01:15:01;;;;;;;24.98;15.38;;;;;;;14.44;92.07;94928.56;5087856;28;20036;-75
2021/04/30 01:17:28;;;;;;;25.02;16.15;;;;;;;14.29;92.91;94926.59;5087442;28;20481;-75
2021/04/30 01:19:57;;;;;;;21.23;14.50;;;;;;;14.09;94.39;94934.31;5086134;28;20055;-75
2021/04/30 01:22:38;;;;;;;21.00;16.25;;;;;;;14.09;94.72;94929.84;5087851;28;20047;-75
2021/04/30 01:25:17;;;;;;;21.70;15.15;;;;;;;14.14;93.99;94936.97;5087578;28;20122;-76
2021/04/30 01:27:44;;;;;;;19.98;14.75;;;;;;;14.03;94.26;94924.84;5086775;28;20036;-75
2021/04/30 01:30:23;;;;;;;21.70;15.02;;;;;;;14.04;94.15;94932.44;5087439;28;20044;-75
2021/04/30 01:32:50;;;;;;;18.08;14.07;;;;;;;14.17;93.51;94940.91;5086309;28;20044;-75
2021/04/30 01:35:27;;;;;;;18.45;15.90;;;;;;;14.10;93.39;94935.91;5088950;28;20465;-75
2021/04/30 01:37:55;;;;;;;24.48;14.93;;;;;;;14.14;93.08;94927.28;5086148;28;20040;-75
2021/04/30 01:40:24;;;;;;;22.20;16.13;;;;;;;14.25;92.46;94938.63;5085267;28;20457;-75
2021/04/30 01:43:04;;;;;;;18.40;13.65;;;;;;;14.29;91.63;94944.94;5087433;28;20382;-76
2021/04/30 01:45:36;;;;;;;20.42;13.50;;;;;;;14.38;91.06;94939.25;5088698;28;20039;-75
2021/04/30 01:48:06;;;;;;;20.13;15.02;;;;;;;14.48;90.30;94942.72;5086158;28;20047;-75
2021/04/30 01:50:33;;;;;;;27.80;18.25;;;;;;;14.54;89.80;94951.41;5087212;28;20513;-76
2021/04/30 01:52:59;;;;;;;26.30;14.65;;;;;;;14.50;89.53;94939.84;5087016;28;20051;-75
2021/04/30 01:55:30;;;;;;;25.15;15.73;;;;;;;14.66;89.30;94944.16;5085843;28;20063;-75
2021/04/30 01:57:57;;;;;;;26.48;17.08;;;;;;;14.77;88.37;94934.53;5086137;28;20058;-75
2021/04/30 02:00:27;;;;;;;26.67;17.75;;;;;;;14.74;88.71;94939.50;5085844;28;20047;-75
2021/04/30 02:02:55;;;;;;;25.60;13.65;;;;;;;14.26;91.66;94929.75;5085824;28;20424;-75
2021/04/30 02:05:28;;;;;;;20.08;13.00;;;;;;;14.14;91.47;94931.75;5085312;28;20122;-75
2021/04/30 02:07:59;;;;;;;23.38;14.48;;;;;;;14.31;90.38;94927.16;5086647;28;20497;-75
2021/04/30 02:10:26;;;;;;;22.35;13.30;;;;;;;14.38;90.34;94920.91;5085622;28;20048;-75
2021/04/30 02:12:53;;;;;;;18.63;12.10;;;;;;;14.27;90.64;94926.06;5086656;28;20036;-75
2021/04/30 02:15:21;;;;;;;23.75;13.38;;;;;;;14.12;91.33;94912.88;5086852;28;20040;-75
2021/04/30 02:17:47;;;;;;;27.52;14.43;;;;;;;14.13;91.04;94919.66;5086326;28;20048;-74
2021/04/30 02:20:16;;;;;;;16.98;13.02;;;;;;;14.04;92.10;94921.19;5084959;28;20142;-75
2021/04/30 02:22:43;;;;;;;20.83;12.60;;;;;;;14.09;91.50;94927.25;5085168;28;20863;-75
2021/04/30 02:25:12;;;;;;;23.15;12.35;;;;;;;14.11;91.99;94916.53;5086640;28;20036;-75
2021/04/30 02:27:39;;;;;;;17.73;12.70;;;;;;;14.18;91.08;94922.34;5086178;28;20046;-75
2021/04/30 02:30:07;;;;;;;20.90;13.30;;;;;;;14.12;91.31;94928.59;5086294;28;20040;-75
2021/04/30 02:32:34;;;;;;;24.75;12.88;;;;;;;14.07;91.62;94931.16;5086461;28;20040;-75
2021/04/30 02:35:03;;;;;;;20.38;13.05;;;;;;;14.03;92.23;94930.88;5086076;28;21621;-75
2021/04/30 02:37:29;;;;;;;22.00;13.07;;;;;;;13.82;92.95;94924.66;5085906;28;20858;-75
2021/04/30 02:39:56;;;;;;;23.73;12.65;;;;;;;13.76;92.99;94909.97;5085313;28;20043;-75
2021/04/30 02:42:22;;;;;;;20.95;13.05;;;;;;;13.86;93.03;94920.50;5086068;28;20032;-75
2021/04/30 02:44:48;;;;;;;16.38;11.90;;;;;;;13.81;93.20;94928.34;5086157;28;20050;-74
2021/04/30 02:47:15;;;;;;;17.73;11.82;;;;;;;13.90;92.42;94932.06;5085883;28;20047;-75
2021/04/30 02:49:46;;;;;;;17.65;12.20;;;;;;;13.88;92.71;94931.53;5086175;28;20040;-75
2021/04/30 02:52:16;;;;;;;18.90;12.82;;;;;;;13.88;91.92;94933.34;5084855;28;20517;-74
2021/04/30 02:54:43;;;;;;;20.50;13.13;;;;;;;13.89;91.83;94940.97;5086070;28;20068;-74
2021/04/30 02:57:12;;;;;;;17.35;12.25;;;;;;;13.81;92.30;94938.00;5087456;28;20510;-75
2021/04/30 02:59:39;;;;;;;28.70;15.00;;;;;;;13.72;92.54;94929.78;5085807;28;20039;-75
2021/04/30 03:02:05;;;;;;;18.33;13.02;;;;;;;13.71;93.04;94944.72;5087413;28;20130;-75
2021/04/30 03:04:32;;;;;;;17.25;11.85;;;;;;;13.82;91.67;94945.59;5083265;28;20573;-75
2021/04/30 03:06:59;;;;;;;25.30;12.55;;;;;;;14.04;90.95;94963.84;5084624;28;20048;-75
2021/04/30 03:09:25;;;;;;;19.33;12.35;;;;;;;14.08;89.36;94974.63;5068847;28;20062;-75
2021/04/30 03:11:51;;;;;;;22.75;12.45;;;;;;;14.00;89.54;94970.63;5085938;28;20055;-74
2021/04/30 03:14:18;;;;;;;24.42;11.68;;;;;;;14.12;89.11;94986.22;5085595;28;20447;-75
2021/04/30 03:16:44;;;;;;;27.33;11.73;;;;;;;14.19;89.34;94978.94;5085917;28;20039;-74
2021/04/30 03:19:11;;;;;;;20.20;12.27;;;;;;;14.05;89.30;94975.94;5085210;28;20127;-74
2021/04/30 03:21:37;;;;;;;20.33;12.82;;;;;;;14.17;88.66;94988.06;5085961;28;20152;-74
2021/04/30 03:24:05;;;;;;;25.88;12.10;;;;;;;13.99;89.29;94981.34;5090063;28;20040;-75
2021/04/30 03:26:32;;;;;;;22.35;12.40;;;;;;;14.05;89.01;94980.38;5089865;28;20042;-74
2021/04/30 03:28:59;;;;;;;24.17;13.13;;;;;;;14.09;88.64;94989.31;5088234;28;20036;-75
2021/04/30 03:31:26;;;;;;;19.58;12.90;;;;;;;14.06;88.56;94992.41;5091260;28;20060;-75
2021/04/30 03:33:53;;;;;;;27.20;14.70;;;;;;;14.10;89.03;95004.00;5088004;28;20040;-75
2021/04/30 03:36:20;;;;;;;27.15;14.82;;;;;;;13.98;90.35;95004.13;5090196;28;20040;-75
2021/04/30 03:38:48;;;;;;;20.45;15.38;;;;;;;13.92;90.61;94992.84;5091128;28;20036;-74
2021/04/30 03:41:15;;;;;;;24.38;16.48;;;;;;;13.84;91.70;95008.97;5090979;28;20048;-74
2021/04/30 03:43:43;;;;;;;23.05;16.45;;;;;;;13.86;91.65;95009.50;5091243;28;20050;-74
2021/04/30 03:46:10;;;;;;;27.73;17.85;;;;;;;13.87;91.60;95011.09;5089425;28;20492;-75
2021/04/30 03:48:37;;;;;;;22.50;16.38;;;;;;;13.87;91.42;95011.09;5088850;28;20153;-74
2021/04/30 03:51:03;;;;;;;27.15;17.20;;;;;;;13.79;91.56;95005.50;5089870;28;20664;-74
2021/04/30 03:53:30;;;;;;;26.02;16.85;;;;;;;13.93;91.27;95017.19;5087706;28;20409;-74
2021/04/30 03:55:56;;;;;;;24.88;17.40;;;;;;;13.99;90.49;95013.59;5089358;28;20046;-74
2021/04/30 03:58:22;;;;;;;21.25;15.82;;;;;;;14.08;90.23;95027.00;5089149;28;20036;-74
2021/04/30 04:00:49;;;;;;;31.27;17.10;;;;;;;14.08;89.57;95034.84;5089315;28;20043;-75
2021/04/30 04:03:15;;;;;;;30.05;17.10;;;;;;;14.08;89.75;95032.25;5088743;28;20040;-75
2021/04/30 04:05:41;;;;;;;26.92;17.13;;;;;;;13.82;91.55;95033.84;5087011;28;20524;-75
2021/04/30 04:08:08;;;;;;;25.33;17.73;;;;;;;13.85;91.63;95044.59;5088649;28;20439;-74
2021/04/30 04:10:36;;;;;;;29.85;20.48;;;;;;;13.68;91.51;95022.94;5088856;28;20135;-74
2021/04/30 04:13:16;;;;;;;25.90;18.35;;;;;;;13.86;92.32;95046.16;5087477;28;20051;-74
2021/04/30 04:15:47;;;;;;;27.75;18.73;;;;;;;14.03;91.46;95055.78;5088893;28;20379;-74
2021/04/30 04:18:15;;;;;;;26.25;17.45;;;;;;;14.13;90.28;95050.63;5087416;28;20040;-74
2021/04/30 04:20:42;;;;;;;26.55;18.40;;;;;;;14.17;89.89;95067.44;5091428;28;20044;-74
2021/04/30 04:23:10;;;;;;;26.55;17.13;;;;;;;14.21;89.37;95068.53;5087398;28;20048;-75
2021/04/30 04:25:38;;;;;;;28.33;15.88;;;;;;;14.26;89.09;95068.59;5088704;28;20050;-74
2021/04/30 04:28:05;;;;;;;36.40;23.15;;;;;;;14.38;88.20;95072.88;5088554;28;20442;-75
2021/04/30 04:30:32;;;;;;;44.75;38.92;;;;;;;14.46;87.79;95077.69;5088677;28;20043;-75
2021/04/30 04:32:59;;;;;;;35.80;24.35;;;;;;;14.51;87.55;95080.31;5088032;28;20028;-74
2021/04/30 04:35:26;;;;;;;29.08;19.92;;;;;;;14.45;88.21;95091.81;5087925;28;20078;-75
2021/04/30 04:37:52;;;;;;;28.17;17.88;;;;;;;14.42;88.87;95092.28;5088494;28;20120;-75
2021/04/30 04:40:19;;;;;;;30.63;18.65;;;;;;;14.44;88.59;95092.81;5088110;28;20405;-75
2021/04/30 04:42:45;;;;;;;23.48;17.60;;;;;;;14.38;89.40;95099.06;5090240;28;20110;-75
2021/04/30 04:45:13;;;;;;;24.70;17.10;;;;;;;14.36;90.15;95109.00;5087387;28;20062;-74
2021/04/30 04:47:41;;;;;;;28.45;18.52;;;;;;;14.38;89.97;95112.19;5088136;28;20048;-74
2021/04/30 04:50:09;;;;;;;28.70;18.38;;;;;;;14.45;90.47;95104.91;5088107;28;20051;-75
2021/04/30 04:52:35;;;;;;;27.88;18.90;;;;;;;14.53;90.85;95101.81;5088463;28;20046;-75
2021/04/30 04:55:02;;;;;;;26.15;18.52;;;;;;;14.68;91.58;95104.63;5087940;28;20076;-74
2021/04/30 04:57:29;;;;;;;29.02;18.20;;;;;;;14.83;90.55;95111.03;5086916;28;20036;-75
2021/04/30 04:59:55;;;;;;;27.17;17.90;;;;;;;14.91;90.26;95113.19;5088065;28;20046;-75
2021/04/30 05:02:21;;;;;;;28.45;19.08;;;;;;;14.93;90.21;95121.59;5087859;28;20428;-75
2021/04/30 05:04:48;;;;;;;27.88;19.17;;;;;;;15.00;90.72;95131.84;5086817;28;20048;-75
2021/04/30 05:07:14;;;;;;;28.92;17.98;;;;;;;15.05;90.91;95124.84;5088162;28;20425;-74
2021/04/30 05:09:41;;;;;;;29.42;16.73;;;;;;;15.04;90.81;95128.50;5088364;28;20054;-75
2021/04/30 05:12:08;;;;;;;24.60;17.30;;;;;;;15.05;90.68;95118.78;5088016;28;20036;-75
2021/04/30 05:14:35;;;;;;;29.95;17.45;;;;;;;15.19;90.30;95124.41;5087783;28;20050;-74
2021/04/30 05:17:07;;;;;;;22.38;15.73;;;;;;;15.24;90.64;95116.56;5087796;28;20043;-75
2021/04/30 05:19:33;;;;;;;27.80;17.65;;;;;;;15.19;90.46;95119.16;5087627;28;20063;-75
2021/04/30 05:22:01;;;;;;;27.25;17.33;;;;;;;15.21;89.68;95127.56;5087934;28;20131;-75
2021/04/30 05:24:28;;;;;;;28.38;17.25;;;;;;;15.20;88.80;95131.25;5087723;28;20043;-75
2021/04/30 05:26:55;;;;;;;28.15;16.95;;;;;;;15.25;88.72;95128.63;5087677;28;20044;-75
2021/04/30 05:29:21;;;;;;;29.33;15.98;;;;;;;15.28;88.95;95117.63;5087767;28;20032;-74
2021/04/30 05:31:47;;;;;;;31.70;17.23;;;;;;;15.40;88.57;95126.09;5087660;28;21207;-74
2021/04/30 05:34:14;;;;;;;23.77;15.27;;;;;;;15.48;87.71;95123.03;5087381;28;20040;-74
2021/04/30 05:36:40;;;;;;;22.45;15.27;;;;;;;15.57;87.32;95119.91;5087740;28;20109;-74
2021/04/30 05:39:06;;;;;;;22.48;15.50;;;;;;;15.56;86.49;95113.09;5087326;28;20043;-75
2021/04/30 05:41:33;;;;;;;30.65;16.25;;;;;;;15.61;86.39;95107.84;5087511;28;20047;-74
2021/04/30 05:44:00;;;;;;;32.83;17.52;;;;;;;15.48;88.16;95112.53;5088041;28;20097;-74
2021/04/30 05:46:26;;;;;;;22.15;14.98;;;;;;;15.54;87.49;95115.16;5087241;28;20397;-74
2021/04/30 05:48:52;;;;;;;25.83;16.55;;;;;;;15.67;86.44;95109.44;5087197;28;20520;-75
2021/04/30 05:51:19;;;;;;;30.73;15.27;;;;;;;15.72;85.55;95106.84;5088361;28;20894;-74
2021/04/30 05:53:45;;;;;;;24.83;17.08;;;;;;;15.85;86.12;95111.66;5088434;28;20063;-75
2021/04/30 05:56:28;;;;;;;24.42;16.08;;;;;;;15.97;85.71;95118.50;5086462;28;20113;-73
2021/04/30 05:58:55;;;;;;;29.50;16.25;;;;;;;15.98;86.21;95099.88;5087096;28;20043;-75
2021/04/30 06:01:22;;;;;;;23.15;14.88;;;;;;;16.06;85.90;95101.19;5086861;28;20141;-75
2021/04/30 06:03:49;;;;;;;24.10;16.15;;;;;;;16.21;85.37;95111.78;5086483;28;20520;-74
2021/04/30 06:06:15;;;;;;;26.40;14.57;;;;;;;16.20;86.16;95118.06;5085786;28;20836;-74
2021/04/30 06:08:41;;;;;;;24.17;13.68;;;;;;;16.35;86.07;95114.69;5085417;28;20048;-74
2021/04/30 06:11:08;;;;;;;25.73;15.75;;;;;;;16.45;85.47;95119.19;5085451;28;20048;-74
2021/04/30 06:13:35;;;;;;;25.85;16.00;;;;;;;16.47;84.89;95122.34;5085554;28;20044;-74
2021/04/30 06:16:01;;;;;;;23.45;15.95;;;;;;;16.54;85.37;95125.50;5087040;28;20105;-75
2021/04/30 06:18:28;;;;;;;26.85;15.80;;;;;;;16.60;85.10;95115.78;5086656;28;20040;-74
2021/04/30 06:20:54;;;;;;;29.92;16.02;;;;;;;16.54;85.18;95114.97;5086788;28;20039;-75
2021/04/30 06:23:20;;;;;;;30.13;17.48;;;;;;;16.57;85.32;95111.84;5086889;28;20047;-75
2021/04/30 06:25:47;;;;;;;20.98;12.98;;;;;;;16.67;81.88;95115.53;5086613;28;20934;-75
2021/04/30 06:28:13;;;;;;;22.30;13.30;;;;;;;16.76;81.05;95113.94;5086543;28;20028;-75
2021/04/30 06:30:39;;;;;;;18.80;11.20;;;;;;;16.87;78.74;95125.28;5086631;28;20040;-75
2021/04/30 06:33:09;;;;;;;22.20;12.00;;;;;;;16.88;77.94;95122.41;5089519;28;20054;-74
2021/04/30 06:35:36;;;;;;;22.13;11.90;;;;;;;17.12;78.44;95132.38;5087488;28;20071;-75
2021/04/30 06:38:03;;;;;;;21.45;12.07;;;;;;;17.13;78.29;95124.22;5087342;28;20375;-73
2021/04/30 06:40:30;;;;;;;16.67;9.93;;;;;;;17.36;76.45;95130.00;5088051;28;20036;-74
2021/04/30 06:42:57;;;;;;;11.95;7.97;;;;;;;17.56;72.84;95142.34;5086467;28;20056;-74
2021/04/30 06:45:23;;;;;;;22.58;9.85;;;;;;;17.75;73.39;95145.19;5082678;28;20044;-74
2021/04/30 06:47:50;;;;;;;19.02;10.38;;;;;;;17.85;74.07;95139.09;5085313;28;20114;-75
2021/04/30 06:50:16;;;;;;;17.02;9.82;;;;;;;17.90;74.37;95131.22;5085821;28;20062;-77
2021/04/30 06:52:44;;;;;;;17.80;8.50;;;;;;;18.12;72.66;95133.50;5086517;28;20044;-74
2021/04/30 06:55:11;;;;;;;16.92;6.38;;;;;;;18.24;65.42;95154.25;5086304;28;20433;-74
2021/04/30 06:57:41;;;;;;;12.68;6.45;;;;;;;18.34;64.64;95148.94;5084238;28;20040;-75
2021/04/30 07:00:09;;;;;;;18.98;8.77;;;;;;;18.49;65.26;95146.22;5084693;28;20513;-74
2021/04/30 07:02:35;;;;;;;17.33;7.05;;;;;;;18.59;65.18;95155.91;5088257;28;20054;-76
2021/04/30 07:05:03;;;;;;;12.82;5.88;;;;;;;18.72;65.24;95151.88;5086074;28;20044;-76
2021/04/30 07:07:31;;;;;;;19.73;6.20;;;;;;;18.88;63.43;95156.00;5084899;28;20504;-76
2021/04/30 07:09:58;;;;;;;21.27;7.35;;;;;;;19.02;62.49;95150.13;5088045;28;20032;-76
2021/04/30 07:12:24;;;;;;;21.13;7.03;;;;;;;19.27;62.52;95157.81;5087779;28;20500;-76
2021/04/30 07:14:50;;;;;;;21.52;6.18;;;;;;;19.48;61.23;95147.06;5086827;28;20048;-76
2021/04/30 07:17:17;;;;;;;21.30;7.20;;;;;;;19.67;56.93;95155.84;5087894;28;20462;-76
2021/04/30 07:19:43;;;;;;;31.83;10.50;;;;;;;19.80;58.48;95143.06;5087915;28;20486;-76
2021/04/30 07:22:11;;;;;;;19.30;7.28;;;;;;;19.91;55.79;95159.59;5087065;28;20040;-76
2021/04/30 07:24:39;;;;;;;15.73;5.05;;;;;;;19.90;56.73;95148.25;5088231;28;20110;-76
2021/04/30 07:27:07;;;;;;;19.95;5.82;;;;;;;20.01;57.13;95149.69;5089387;28;20101;-75
2021/04/30 07:29:35;;;;;;;8.40;4.97;;;;;;;20.24;57.75;95148.09;5088016;28;20035;-76
2021/04/30 07:32:02;;;;;;;13.30;4.75;;;;;;;20.40;56.55;95146.03;5087819;28;20047;-76
2021/04/30 07:34:36;;;;;;;12.77;3.88;;;;;;;20.50;50.43;95145.09;5085580;28;20040;-75
2021/04/30 07:37:04;;;;;;;14.57;3.55;;;;;;;20.61;50.69;95151.84;5085094;28;20039;-76
2021/04/30 07:39:33;;;;;;;13.98;3.97;;;;;;;20.71;51.36;95135.06;5085311;28;20042;-76
2021/04/30 07:42:00;;;;;;;15.75;4.50;;;;;;;20.97;51.59;95142.59;5085912;28;20459;-76
2021/04/30 07:44:27;;;;;;;11.20;3.58;;;;;;;21.11;50.95;95143.44;5086018;28;20516;-76
2021/04/30 07:46:54;;;;;;;13.82;4.57;;;;;;;21.23;51.21;95134.25;5088887;28;20523;-75
2021/04/30 07:49:21;;;;;;;13.23;3.85;;;;;;;21.38;49.71;95137.41;5085691;28;20115;-75
2021/04/30 07:51:48;;;;;;;8.00;3.55;;;;;;;21.61;48.15;95139.44;5085101;28;20489;-75
2021/04/30 07:54:14;;;;;;;10.68;2.95;;;;;;;21.80;46.84;95132.19;5085586;28;20059;-76
2021/04/30 07:56:41;;;;;;;9.23;2.97;;;;;;;21.82;46.51;95118.63;5087927;28;20058;-76
2021/04/30 07:59:07;;;;;;;8.88;3.00;;;;;;;22.05;47.29;95135.44;5087513;28;20036;-76
2021/04/30 08:01:33;;;;;;;14.07;3.03;;;;;;;22.23;47.85;95118.59;5085501;28;20076;-74
2021/04/30 08:04:00;;;;;;;10.27;2.30;;;;;;;22.40;43.81;95118.03;5089021;28;20036;-76
2021/04/30 08:06:27;;;;;;;12.60;2.75;;;;;;;22.60;42.30;95122.09;5085568;28;20075;-77
2021/04/30 08:08:54;;;;;;;15.88;2.72;;;;;;;22.73;43.60;95117.03;5089521;28;20044;-76
2021/04/30 08:11:20;;;;;;;10.40;2.72;;;;;;;22.84;42.42;95118.38;5089875;28;20036;-77
2021/04/30 08:13:46;;;;;;;9.25;2.80;;;;;;;22.99;41.05;95107.34;5090050;28;20078;-77
2021/04/30 08:16:13;;;;;;;16.33;3.42;;;;;;;23.07;39.52;95097.94;5092315;28;20580;-76
2021/04/30 08:18:40;;;;;;;17.88;2.85;;;;;;;23.30;40.61;95106.66;5091150;28;20024;-76
2021/04/30 08:21:07;;;;;;;15.07;2.70;;;;;;;23.54;40.40;95105.50;5088499;28;20051;-76
2021/04/30 08:23:34;;;;;;;11.35;2.17;;;;;;;23.73;40.20;95108.69;5089625;28;20127;-76
2021/04/30 08:26:00;;;;;;;10.48;2.03;;;;;;;23.75;37.20;95095.91;5089318;28;20393;-76
2021/04/30 08:28:27;;;;;;;8.38;2.25;;;;;;;23.81;36.61;95096.56;5091073;28;20050;-76
2021/04/30 08:30:55;;;;;;;11.65;2.15;;;;;;;23.96;37.22;95095.34;5088945;28;20052;-76
2021/04/30 08:33:26;;;;;;;11.65;1.95;;;;;;;24.10;37.25;95096.00;5089201;28;20062;-77
2021/04/30 08:35:53;;;;;;;7.28;1.80;;;;;;;24.17;37.04;95080.38;5089456;28;20414;-77
2021/04/30 08:38:19;;;;;;;10.68;2.13;;;;;;;24.26;36.14;95082.25;5072474;28;20044;-77
2021/04/30 08:40:49;;;;;;;11.05;2.30;;;;;;;24.47;37.55;95093.88;5088535;28;20039;-77
2021/04/30 08:43:19;;;;;;;15.50;2.85;;;;;;;24.53;35.88;95087.31;5089272;28;20040;-76
2021/04/30 08:45:46;;;;;;;13.82;2.40;;;;;;;24.71;35.71;95087.31;5087780;28;20040;-77
2021/04/30 08:48:14;;;;;;;7.38;2.95;;;;;;;24.86;36.20;95078.81;5087908;28;20115;-77
2021/04/30 08:50:46;;;;;;;11.32;1.98;;;;;;;25.03;39.50;95087.88;5088233;28;20115;-75
2021/04/30 08:53:12;;;;;;;14.18;2.40;;;;;;;25.28;35.02;95087.09;5089430;28;20520;-77
2021/04/30 08:55:39;;;;;;;14.35;4.05;;;;;;;25.44;33.57;95082.00;5090124;28;20468;-77
2021/04/30 08:58:09;;;;;;;11.65;2.10;;;;;;;25.58;34.11;95081.78;5088790;28;20050;-77
2021/04/30 09:00:35;;;;;;;9.18;2.35;;;;;;;25.73;33.76;95077.78;5087293;28;20048;-76
2021/04/30 09:03:04;;;;;;;12.20;2.40;;;;;;;25.76;34.26;95087.84;5089281;28;20062;-77
2021/04/30 09:05:31;;;;;;;7.93;1.95;;;;;;;25.95;32.20;95076.78;5089483;28;20040;-77
2021/04/30 09:07:59;;;;;;;13.45;2.80;;;;;;;25.86;31.85;95074.13;5087807;28;20570;-77
2021/04/30 09:10:36;;;;;;;13.63;2.30;;;;;;;25.25;35.05;95066.38;5090022;28;20059;-77
2021/04/30 09:13:05;;;;;;;9.43;1.95;;;;;;;25.72;32.19;95077.03;5088563;28;20525;-77
2021/04/30 09:15:33;;;;;;;10.57;2.92;;;;;;;26.10;31.58;95064.75;5088669;28;20079;-77
2021/04/30 09:18:21;;;;;;;12.00;1.98;;;;;;;26.34;30.18;95074.78;5088926;28;20043;-77
2021/04/30 09:20:49;;;;;;;11.25;2.53;;;;;;;26.54;29.74;95070.53;5089390;28;20040;-77
2021/04/30 09:23:38;;;;;;;20.20;2.65;;;;;;;26.62;30.54;95063.63;5089345;28;20044;-77
2021/04/30 09:26:40;;;;;;;15.27;2.33;;;;;;;26.48;30.68;95063.84;5088899;28;20031;-76
2021/04/30 09:29:10;;;;;;;9.00;1.67;;;;;;;26.80;31.71;95054.34;5017193;28;20531;-77
2021/04/30 09:31:37;;;;;;;11.25;2.55;;;;;;;27.16;31.77;95050.19;5076568;28;20052;-77
2021/04/30 09:34:19;;;;;;;12.00;1.80;;;;;;;27.47;29.10;95054.28;5089779;28;20040;-77
2021/04/30 09:37:16;;;;;;;10.13;2.00;;;;;;;27.37;28.89;95052.03;5088068;28;20515;-75
2021/04/30 09:40:00;;;;;;;12.38;1.88;;;;;;;27.72;29.18;95049.72;5087253;28;20119;-75
2021/04/30 09:42:27;;;;;;;;;;;;;;;27.98;29.83;95051.28;5085431;28;20048;-75
2021/04/30 09:44:59;;;;;;;8.85;1.90;;;;;;;28.22;28.74;95045.13;5085986;28;19926;-74
2021/04/30 09:47:44;;;;;;;10.80;2.88;;;;;;;27.96;30.58;95043.56;5085368;28;20538;-75
2021/04/30 09:50:30;;;;;;;7.25;2.70;;;;;;;27.87;27.64;95040.22;5077478;28;20127;-72
2021/04/30 09:52:58;;;;;;;10.90;3.65;;;;;;;28.13;26.80;95041.78;5086176;28;20048;-74
2021/04/30 09:55:41;;;;;;;10.60;1.92;;;;;;;28.46;26.54;95032.75;5086698;28;20123;-74
2021/04/30 09:58:29;;;;;;;12.00;2.10;;;;;;;28.55;27.74;95036.09;5085746;28;20048;-74
2021/04/30 10:01:00;;;;;;;7.30;2.28;;;;;;;28.59;28.13;95042.34;5086711;28;20044;-76
2021/04/30 10:03:34;;;;;;;11.73;3.05;;;;;;;28.57;27.81;95039.22;5085990;28;20044;-76
2021/04/30 10:06:09;;;;;;;13.18;2.05;;;;;;;28.70;28.20;95032.72;5086022;28;20429;-76
2021/04/30 10:08:36;;;;;;;10.27;2.15;;;;;;;28.78;28.94;95033.66;5090987;28;20758;-75
2021/04/30 10:11:03;;;;;;;17.10;4.13;;;;;;;28.97;26.68;95027.63;5083989;28;20461;-76
2021/04/30 10:13:38;;;;;;;11.77;3.85;;;;;;;29.39;26.67;95021.81;5086576;28;20048;-74
2021/04/30 10:16:06;;;;;;;9.30;1.92;;;;;;;29.48;26.62;95021.66;5087325;28;20501;-74
2021/04/30 10:18:32;;;;;;;9.38;2.40;;;;;;;29.07;26.82;95013.72;5088932;28;20035;-75
2021/04/30 10:20:59;;;;;;;9.93;2.90;;;;;;;29.02;27.44;95015.88;5085880;28;20558;-75
2021/04/30 10:23:27;;;;;;;12.77;2.20;;;;;;;29.30;25.79;95016.63;5085044;28;20437;-75
2021/04/30 10:25:54;;;;;;;13.07;2.72;;;;;;;29.51;25.72;95011.00;5084494;28;20054;-76
2021/04/30 10:28:25;;;;;;;10.27;3.33;;;;;;;29.58;24.20;94998.88;5083927;28;20066;-74
2021/04/30 10:30:53;;;;;;;11.68;3.17;;;;;;;29.67;26.39;95002.91;5084535;28;20047;-73
2021/04/30 10:33:56;;;;;;;14.88;3.15;;;;;;;30.10;25.41;95003.09;5083851;28;20036;-74
2021/04/30 10:36:33;;;;;;;13.93;2.65;;;;;;;29.91;26.42;94996.56;5085904;28;20048;-74
2021/04/30 10:39:03;;;;;;;13.02;2.03;;;;;;;30.14;25.37;94987.81;5080340;28;20038;-74
2021/04/30 10:41:39;;;;;;;12.82;2.50;;;;;;;30.47;27.33;94983.91;5088711;28;20124;-78
2021/04/30 10:44:17;;;;;;;15.68;2.50;;;;;;;31.01;23.42;94985.69;5090461;28;20040;-79
2021/04/30 10:46:46;;;;;;;16.00;2.50;;;;;;;31.37;22.60;94975.50;5094068;28;20454;-79
2021/04/30 10:49:16;;;;;;;10.02;2.63;;;;;;;31.53;24.86;94974.59;5096044;28;20032;-80
2021/04/30 10:52:03;;;;;;;11.13;2.60;;;;;;;31.57;26.92;94972.75;5089673;28;20044;-80
2021/04/30 10:54:34;;;;;;;8.65;1.88;;;;;;;32.26;24.96;94969.06;5087176;28;20560;-79
2021/04/30 10:57:09;;;;;;;9.70;2.10;;;;;;;32.29;24.08;94968.31;5087883;28;20039;-77
2021/04/30 10:59:36;;;;;;;13.00;2.70;;;;;;;32.15;23.27;94961.59;5084018;28;20047;-79
2021/04/30 11:02:22;;;;;;;9.18;2.13;;;;;;;32.22;21.79;94957.47;5091208;28;20397;-79
2021/04/30 11:05:07;;;;;;;9.88;2.63;;;;;;;32.53;21.58;94957.03;5087647;28;20043;-79
2021/04/30 11:07:38;;;;;;;11.15;2.53;;;;;;;32.17;22.00;94953.94;5091552;28;20488;-79
2021/04/30 11:10:31;;;;;;;19.88;2.33;;;;;;;32.57;22.08;94947.06;5089035;28;20063;-79
2021/04/30 11:13:06;;;;;;;7.05;1.80;;;;;;;32.91;24.16;94941.63;5090734;28;20090;-79
2021/04/30 11:15:52;;;;;;;11.73;3.42;;;;;;;32.88;24.06;94938.91;5089987;28;20687;-79
2021/04/30 11:18:23;;;;;;;12.02;2.17;;;;;;;33.50;22.78;94930.91;5090967;28;20036;-79
2021/04/30 11:21:10;;;;;;;12.23;2.40;;;;;;;32.99;23.75;94923.59;5087515;28;20492;-78
2021/04/30 11:23:47;;;;;;;16.17;2.25;;;;;;;32.73;22.72;94925.28;5092141;28;20054;-79
2021/04/30 11:26:18;;;;;;;11.75;2.20;;;;;;;32.80;20.21;94929.97;5087589;28;20040;-79
2021/04/30 11:28:44;;;;;;;11.07;2.05;;;;;;;32.25;23.36;94919.00;5088573;28;20040;-79
2021/04/30 11:31:18;;;;;;;17.23;2.03;;;;;;;32.47;24.05;94923.47;5087869;28;20047;-78